createdAt,value
2022-09-15T07:38:31.833Z,11.70
2022-09-15T07:41:05.023Z,14.13
2022-09-15T07:43:35.579Z,13.27
2022-09-15T07:46:05.352Z,8.73
2022-09-15T07:48:34.141Z,11.43
2022-09-15T07:51:02.789Z,11.30
2022-09-15T07:53:31.989Z,9.40
2022-09-15T07:56:00.693Z,10.10
2022-09-15T07:58:37.989Z,15.10
2022-09-15T08:01:08.370Z,18.17
2022-09-15T08:03:40.172Z,10.43
2022-09-15T08:06:09.140Z,13.70
2022-09-15T08:08:38.896Z,11.23
2022-09-15T08:11:08.688Z,11.73
2022-09-15T08:13:39.171Z,11.73
2022-09-15T08:16:09.465Z,11.98
2022-09-15T08:18:38.780Z,12.43
2022-09-15T08:21:09.461Z,19.95
2022-09-15T08:23:38.405Z,13.43
2022-09-15T08:26:13.090Z,12.88
2022-09-15T08:28:44.394Z,15.35
2022-09-15T08:31:15.236Z,14.25
2022-09-15T08:33:48.360Z,12.60
2022-09-15T08:36:17.281Z,10.75
2022-09-15T08:38:46.834Z,16.73
2022-09-15T08:41:19.971Z,10.88
2022-09-15T08:43:58.443Z,13.90
2022-09-15T08:46:34.901Z,18.77
2022-09-15T08:49:09.484Z,12.65
2022-09-15T08:51:43.165Z,13.68
2022-09-15T08:54:19.772Z,14.10
2022-09-15T08:56:49.900Z,14.85
2022-09-15T08:59:21.809Z,12.90
2022-09-15T09:02:05.254Z,15.52
2022-09-15T09:04:49.727Z,12.95
2022-09-15T09:07:31.362Z,11.68
2022-09-15T09:10:12.765Z,12.15
2022-09-15T09:12:54.022Z,15.02
2022-09-15T09:15:34.531Z,14.35
2022-09-15T09:18:22.701Z,12.32
2022-09-15T09:21:01.933Z,16.77
2022-09-15T09:23:34.499Z,15.35
2022-09-15T09:26:06.394Z,14.50
2022-09-15T09:28:41.304Z,16.65
2022-09-15T09:31:23.313Z,16.52
2022-09-15T09:33:56.399Z,19.40
2022-09-15T09:36:25.431Z,16.60
2022-09-15T09:38:54.919Z,13.43
2022-09-15T09:41:35.528Z,13.77
2022-09-15T09:44:08.173Z,11.82
2022-09-15T09:46:38.808Z,15.98
2022-09-15T09:49:15.448Z,11.68
2022-09-15T09:51:52.311Z,15.65
2022-09-15T09:54:22.407Z,14.13
2022-09-15T09:56:52.800Z,11.38
2022-09-15T09:59:41.709Z,13.93
2022-09-15T10:02:18.347Z,13.23
2022-09-15T10:04:48.463Z,10.88
2022-09-15T10:07:19.242Z,8.80
2022-09-15T10:09:53.686Z,11.90
2022-09-15T10:12:26.549Z,12.93
2022-09-15T10:14:57.939Z,13.93
2022-09-15T10:17:39.297Z,16.15
2022-09-15T10:20:24.357Z,27.00
2022-09-15T10:22:53.917Z,9.52
2022-09-15T10:25:49.370Z,12.30
2022-09-15T10:28:23.221Z,13.75
2022-09-15T10:31:02.087Z,9.27
2022-09-15T10:33:35.201Z,12.07
2022-09-15T10:36:07.736Z,12.07
2022-09-15T10:38:44.046Z,11.23
2022-09-15T10:41:21.963Z,13.20
2022-09-15T10:44:05.270Z,13.13
2022-09-15T10:46:44.134Z,21.08
2022-09-15T10:49:30.261Z,17.95
2022-09-15T10:52:12.805Z,22.90
2022-09-15T10:54:54.981Z,17.45
2022-09-15T10:57:35.871Z,18.85
2022-09-15T11:00:10.063Z,14.20
2022-09-15T11:03:13.973Z,18.38
2022-09-15T11:06:01.685Z,16.17
2022-09-15T11:08:57.097Z,13.20
2022-09-15T11:11:32.727Z,10.63
2022-09-15T11:14:13.082Z,11.85
2022-09-15T11:16:58.357Z,11.38
2022-09-15T11:19:47.533Z,7.55
2022-09-15T11:22:22.009Z,6.03
2022-09-15T11:24:56.820Z,12.85
2022-09-15T11:27:31.371Z,11.60
2022-09-15T11:30:08.740Z,10.35
2022-09-15T11:32:45.042Z,4.97
2022-09-15T11:35:34.445Z,8.73
2022-09-15T11:38:20.070Z,12.77
2022-09-15T11:40:53.931Z,6.18
2022-09-15T11:43:31.781Z,11.13
2022-09-15T11:46:02.810Z,8.73
2022-09-15T11:48:36.144Z,8.90
2022-09-15T11:51:07.886Z,9.02
2022-09-15T11:53:42.298Z,13.77
2022-09-15T11:56:19.604Z,7.97
2022-09-15T11:59:03.718Z,8.88
2022-09-15T12:01:39.954Z,9.82
2022-09-15T12:04:15.451Z,12.07
2022-09-15T12:06:50.876Z,9.65
2022-09-15T12:09:22.858Z,8.23
2022-09-15T12:11:53.761Z,5.60
2022-09-15T12:14:29.336Z,8.65
2022-09-15T12:16:59.415Z,11.52
2022-09-15T12:19:46.568Z,10.85
2022-09-15T12:22:21.268Z,10.30
2022-09-15T12:25:00.897Z,12.23
2022-09-15T12:27:30.622Z,10.38
2022-09-15T12:30:00.871Z,9.80
2022-09-15T12:32:30.487Z,11.77
2022-09-15T12:35:01.902Z,9.15
2022-09-15T12:37:40.614Z,14.70
2022-09-15T12:40:29.506Z,10.00
2022-09-15T12:42:58.650Z,13.52
2022-09-15T12:45:29.590Z,14.48
2022-09-15T12:48:03.756Z,16.85
2022-09-15T16:13:09.004Z,17.63
2022-09-15T16:15:39.173Z,16.65
2022-09-15T16:18:07.946Z,20.13
2022-09-15T16:20:36.864Z,19.50
2022-09-15T16:23:05.844Z,17.23
2022-09-15T16:25:40.012Z,17.23
2022-09-15T16:28:08.766Z,21.60
2022-09-15T16:30:39.089Z,17.38
2022-09-15T16:33:07.914Z,15.23
2022-09-15T16:35:40.498Z,11.73
2022-09-15T16:38:09.650Z,20.83
2022-09-15T16:40:38.608Z,17.52
2022-09-15T16:43:13.649Z,12.43
2022-09-15T16:45:44.792Z,17.65
2022-09-15T16:48:14.082Z,15.20
2022-09-15T16:50:56.005Z,13.45
2022-09-15T16:53:32.764Z,13.10
2022-09-15T16:56:01.574Z,12.60
2022-09-15T16:58:31.110Z,13.20
2022-09-15T17:01:01.351Z,16.70
2022-09-15T17:03:30.452Z,13.43
2022-09-15T17:06:00.484Z,12.00
2022-09-15T17:08:31.367Z,15.63
2022-09-15T17:11:02.082Z,15.13
2022-09-15T17:13:34.181Z,18.70
2022-09-15T17:16:04.775Z,15.52
2022-09-15T17:18:33.655Z,13.75
2022-09-15T17:21:02.489Z,12.35
2022-09-15T17:23:35.244Z,11.90
2022-09-15T17:26:05.957Z,10.32
2022-09-15T17:28:36.625Z,11.85
2022-09-15T17:31:13.062Z,11.00
2022-09-15T17:33:42.061Z,11.02
2022-09-15T17:36:11.080Z,11.75
2022-09-15T17:38:41.175Z,13.70
2022-09-15T17:41:14.882Z,15.63
2022-09-15T17:43:43.867Z,11.05
2022-09-15T17:46:14.149Z,12.05
2022-09-15T17:48:43.038Z,11.65
2022-09-15T17:51:17.167Z,10.98
2022-09-15T17:53:47.118Z,13.95
2022-09-15T17:56:15.972Z,13.90
2022-09-15T17:58:44.781Z,9.95
2022-09-15T18:01:16.525Z,11.32
2022-09-15T18:03:46.872Z,12.15
2022-09-15T18:06:15.734Z,10.23
2022-09-15T18:08:44.533Z,9.90
2022-09-15T18:11:15.599Z,10.07
2022-09-15T18:13:44.370Z,8.90
2022-09-15T18:16:15.555Z,13.07
2022-09-15T18:18:44.411Z,11.55
2022-09-15T18:21:25.805Z,9.13
2022-09-15T18:23:54.857Z,11.38
2022-09-15T18:26:26.229Z,12.88
2022-09-15T18:28:56.039Z,10.45
2022-09-15T18:31:26.684Z,10.18
2022-09-15T18:33:55.563Z,14.95
2022-09-15T18:36:24.377Z,11.98
2022-09-15T18:38:53.268Z,13.15
2022-09-15T18:41:22.061Z,9.75
2022-09-15T18:43:50.842Z,10.95
2022-09-15T18:46:20.449Z,14.50
2022-09-15T18:48:50.958Z,8.85
2022-09-15T18:51:29.227Z,10.48
2022-09-15T18:54:03.902Z,8.50
2022-09-15T18:56:32.782Z,11.07
2022-09-15T18:59:01.723Z,16.92
2022-09-15T19:01:30.719Z,11.55
2022-09-15T19:04:01.335Z,15.23
2022-09-15T19:06:30.857Z,14.43
2022-09-15T19:08:59.845Z,14.25
2022-09-15T19:11:29.420Z,17.50
2022-09-15T19:13:58.347Z,13.68
2022-09-15T19:16:46.641Z,15.00
2022-09-15T19:19:20.280Z,18.17
2022-09-15T19:21:49.118Z,12.80
2022-09-15T19:24:18.122Z,19.85
2022-09-15T19:26:47.889Z,13.07
2022-09-15T19:29:16.720Z,16.10
2022-09-15T19:31:45.555Z,21.60
2022-09-15T19:34:14.419Z,17.63
2022-09-15T19:36:44.847Z,21.05
2022-09-15T19:39:14.909Z,24.27
2022-09-15T19:41:45.686Z,26.90
2022-09-15T19:44:16.017Z,28.70
2022-09-15T19:46:45.102Z,26.02
2022-09-15T19:49:13.985Z,22.48
2022-09-15T19:51:44.455Z,27.00
2022-09-15T19:54:13.604Z,23.05
2022-09-15T19:56:42.352Z,23.10
2022-09-15T19:59:11.499Z,18.98
2022-09-15T20:01:40.404Z,20.77
2022-09-15T20:04:09.340Z,27.20
2022-09-15T20:06:38.295Z,19.58
2022-09-15T20:09:09.150Z,22.60
2022-09-15T20:11:38.312Z,24.55
2022-09-15T20:14:07.638Z,25.15
2022-09-15T20:16:36.681Z,21.63
2022-09-15T20:19:06.199Z,29.00
2022-09-15T20:21:52.495Z,38.75
2022-09-15T20:24:25.458Z,30.15
2022-09-15T20:26:54.499Z,34.75
2022-09-15T20:29:23.931Z,30.88
2022-09-15T20:31:52.723Z,28.60
2022-09-15T20:34:21.665Z,26.05
2022-09-15T20:36:50.623Z,29.02
2022-09-15T20:39:22.225Z,25.05
2022-09-15T20:41:52.432Z,23.65
2022-09-15T20:44:21.241Z,25.58
2022-09-15T20:46:50.011Z,25.13
2022-09-15T20:49:18.847Z,28.00
2022-09-15T20:51:47.781Z,28.95
2022-09-15T20:54:16.561Z,23.55
2022-09-15T20:56:45.299Z,29.85
2022-09-15T20:59:15.963Z,21.45
2022-09-15T21:01:44.846Z,24.30
2022-09-15T21:04:13.585Z,22.85
2022-09-15T21:06:42.449Z,25.15
2022-09-15T21:09:11.205Z,27.95
2022-09-15T21:11:40.024Z,26.02
2022-09-15T21:14:08.977Z,23.25
2022-09-15T21:16:39.307Z,34.22
2022-09-15T21:19:09.515Z,20.80
2022-09-15T21:21:38.286Z,22.15
2022-09-15T21:24:08.654Z,23.30
2022-09-15T21:27:00.139Z,19.38
2022-09-15T21:29:29.510Z,22.45
2022-09-15T21:31:59.828Z,20.52
2022-09-15T21:34:29.035Z,21.43
2022-09-15T21:36:57.964Z,26.67
2022-09-15T21:39:26.764Z,21.63
2022-09-15T21:41:57.072Z,23.50
2022-09-15T21:51:53.432Z,21.95
2022-09-15T21:54:22.574Z,21.70
2022-09-15T21:56:51.322Z,20.77
2022-09-15T21:59:20.174Z,21.60
2022-09-15T22:01:49.446Z,16.55
2022-09-15T22:04:18.283Z,20.73
2022-09-15T22:06:50.202Z,22.40
2022-09-15T22:09:21.399Z,19.27
2022-09-15T22:11:50.376Z,21.85
2022-09-15T22:14:19.216Z,23.92
2022-09-15T22:16:48.095Z,21.00
2022-09-15T22:19:18.492Z,18.20
2022-09-15T22:21:48.626Z,20.08
2022-09-15T22:24:18.018Z,22.85
2022-09-15T22:26:46.868Z,20.65
2022-09-15T22:29:15.605Z,21.55
2022-09-15T22:31:44.370Z,19.58
2022-09-15T22:34:13.100Z,19.92
2022-09-15T23:51:20.314Z,26.63
2022-09-15T23:53:49.076Z,27.50
2022-09-15T23:56:17.929Z,23.38
2022-09-15T23:58:46.734Z,21.75
